Time;durP1;ratioP1;P1;durP2;ratioP2;P2;SDS_P1;SDS_P2;PMS_P1;PMS_P2;Temp;Humidity;BMP_temperature;BMP_pressure;BME280_temperature;BME280_humidity;BME280_pressure;Samples;Min_cycle;Max_cycle;Signal;HPM_P1;HPM_P2
2022/12/23 00:00:16;;;;;;;149.63;28.90;;;;;;;9.85;100.00;100009.00;4991603;28;20045;-77
2022/12/23 00:02:41;;;;;;;183.20;29.70;;;;;;;9.87;100.00;100007.00;4994520;28;20043;-77
2022/12/23 00:05:07;;;;;;;156.38;28.65;;;;;;;9.88;100.00;100019.66;4969294;28;20097;-77
2022/12/23 00:07:33;;;;;;;131.57;29.13;;;;;;;9.86;100.00;100016.22;4991052;28;20050;-77
2022/12/23 00:09:58;;;;;;;157.35;27.27;;;;;;;9.85;100.00;100012.59;4991284;28;20379;-77
2022/12/23 00:15:09;;;;;;;199.55;32.85;;;;;;;9.83;100.00;100014.59;4993140;28;20095;-77
2022/12/23 00:17:40;;;;;;;162.40;31.77;;;;;;;9.87;100.00;100017.94;4994467;28;20034;-77
2022/12/23 00:20:07;;;;;;;170.75;32.22;;;;;;;9.89;100.00;100018.69;4980023;28;20042;-78
2022/12/23 00:25:16;;;;;;;160.57;31.45;;;;;;;9.90;100.00;100015.81;4995672;28;20440;-77
2022/12/23 00:28:00;;;;;;;172.70;31.77;;;;;;;9.89;100.00;100018.69;4992926;28;20045;-77
2022/12/23 00:30:25;;;;;;;;;;;;;;;9.95;100.00;100029.03;4995981;28;20057;-78
2022/12/23 00:32:50;;;;;;;150.25;29.17;;;;;;;9.87;100.00;100028.88;4995002;28;19909;-77
2022/12/23 00:35:16;;;;;;;196.30;32.00;;;;;;;9.84;100.00;100034.59;4963370;28;20041;-78
2022/12/23 00:37:41;;;;;;;172.55;31.10;;;;;;;9.82;100.00;100029.31;4961875;28;20042;-78
2022/12/23 00:42:55;;;;;;;176.13;32.80;;;;;;;9.87;100.00;100032.50;4993293;28;20043;-78
2022/12/23 00:45:21;;;;;;;185.63;34.55;;;;;;;9.89;100.00;100043.28;4976544;28;20046;-77
2022/12/23 00:50:34;;;;;;;164.02;31.67;;;;;;;9.93;100.00;100042.00;5011578;28;20498;-77
2022/12/23 00:53:00;;;;;;;186.23;33.20;;;;;;;9.91;100.00;100039.41;4995863;28;20113;-77
2022/12/23 00:55:25;;;;;;;162.20;31.80;;;;;;;9.90;100.00;100042.25;4996318;28;20165;-77
2022/12/23 00:57:51;;;;;;;177.75;34.22;;;;;;;9.92;100.00;100045.75;4961960;28;20085;-78
2022/12/23 01:00:16;;;;;;;171.15;35.55;;;;;;;9.92;100.00;100046.59;4990189;28;20046;-78
2022/12/23 01:05:38;;;;;;;186.05;31.58;;;;;;;9.97;100.00;100062.59;4990399;28;20071;-77
2022/12/23 01:08:09;;;;;;;159.00;32.30;;;;;;;9.98;100.00;100058.00;4996441;28;20034;-78
2022/12/23 01:10:39;;;;;;;190.60;34.55;;;;;;;10.02;100.00;100060.31;4981259;28;20113;-76
2022/12/23 01:13:05;;;;;;;154.18;34.33;;;;;;;9.90;100.00;100047.72;4994849;28;20085;-78
2022/12/23 01:15:32;;;;;;;181.55;35.70;;;;;;;9.90;100.00;100064.13;4989012;28;20027;-77
2022/12/23 01:17:57;;;;;;;175.85;32.65;;;;;;;9.94;100.00;100062.88;4978262;28;20042;-77
2022/12/23 01:20:23;;;;;;;183.88;32.95;;;;;;;9.85;100.00;100069.16;4982438;28;20040;-77
2022/12/23 01:22:49;;;;;;;146.50;31.38;;;;;;;9.84;100.00;100071.03;5004445;28;20098;-77
2022/12/23 01:25:15;;;;;;;180.38;32.88;;;;;;;9.90;100.00;100070.50;5005700;28;20082;-77
2022/12/23 01:27:41;;;;;;;185.48;35.28;;;;;;;9.91;100.00;100077.69;5000894;28;20038;-77
2022/12/23 01:30:07;;;;;;;163.38;33.40;;;;;;;9.91;100.00;100080.41;5005969;28;20058;-77
2022/12/23 01:32:32;;;;;;;195.90;37.47;;;;;;;9.91;100.00;100080.41;4990040;28;20133;-77
2022/12/23 01:34:58;;;;;;;162.02;34.97;;;;;;;9.88;100.00;100075.22;4990711;28;20022;-77
2022/12/23 01:37:23;;;;;;;188.88;35.75;;;;;;;9.94;100.00;100074.66;5007007;28;20069;-77
2022/12/23 01:39:49;;;;;;;159.38;36.63;;;;;;;9.99;100.00;100084.34;4966318;28;20502;-77
2022/12/23 01:45:23;;;;;;;193.88;37.28;;;;;;;10.03;100.00;100078.44;4997408;28;20113;-78
2022/12/23 01:47:54;;;;;;;187.35;39.83;;;;;;;10.05;100.00;100079.19;4963739;28;20494;-78
2022/12/23 01:50:28;;;;;;;220.80;39.30;;;;;;;10.06;100.00;100088.25;4978736;28;20037;-77
2022/12/23 01:53:05;;;;;;;217.05;39.45;;;;;;;10.12;100.00;100088.56;4992191;28;20114;-78
2022/12/23 01:55:36;;;;;;;176.90;36.22;;;;;;;10.06;100.00;100093.72;4982620;28;20030;-78
2022/12/23 01:58:12;;;;;;;183.43;39.90;;;;;;;10.04;100.00;100096.59;4994510;28;20445;-78
2022/12/23 02:03:42;;;;;;;200.07;38.53;;;;;;;10.00;100.00;100102.47;4992152;28;20026;-77
2022/12/23 02:09:16;;;;;;;205.43;39.53;;;;;;;9.93;100.00;100104.88;4987348;28;20097;-78
2022/12/23 02:12:15;;;;;;;207.15;38.20;;;;;;;9.98;100.00;100112.69;4991832;28;20108;-77
2022/12/23 02:17:55;;;;;;;220.70;41.65;;;;;;;10.01;100.00;100121.47;4975129;28;20039;-78
2022/12/23 02:20:44;;;;;;;234.68;42.10;;;;;;;9.94;100.00;100118.44;4993428;28;20129;-78
2022/12/23 02:23:41;;;;;;;211.73;41.40;;;;;;;9.97;100.00;100128.25;4975547;28;20046;-77
2022/12/23 02:26:33;;;;;;;232.40;42.40;;;;;;;9.89;100.00;100120.69;4992200;28;20030;-77
2022/12/23 02:29:26;;;;;;;221.13;42.10;;;;;;;9.91;100.00;100126.03;4980332;28;20045;-77
2022/12/23 02:32:13;;;;;;;253.45;44.58;;;;;;;9.88;100.00;100118.09;4988647;28;20125;-77
2022/12/23 02:35:11;;;;;;;264.50;45.58;;;;;;;9.88;100.00;100126.31;4974998;28;20562;-77
2022/12/23 02:38:03;;;;;;;240.93;39.65;;;;;;;9.91;100.00;100126.91;4993592;28;20045;-77
2022/12/23 02:40:50;;;;;;;232.95;42.33;;;;;;;9.91;100.00;100137.84;4992974;28;20133;-77
2022/12/23 02:43:40;;;;;;;266.98;43.95;;;;;;;9.94;100.00;100139.44;4994452;28;20073;-77
2022/12/23 02:46:37;;;;;;;256.98;47.15;;;;;;;9.93;100.00;100132.22;4994200;28;20089;-77
2022/12/23 02:49:14;;;;;;;262.52;44.38;;;;;;;9.97;100.00;100147.38;4992124;28;20117;-77
2022/12/23 02:51:44;;;;;;;252.10;42.70;;;;;;;9.90;100.00;100148.91;4992868;28;20161;-77
2022/12/23 02:54:14;;;;;;;273.65;44.72;;;;;;;9.89;100.00;100167.19;4976674;28;20391;-77
2022/12/23 02:56:45;;;;;;;259.83;45.20;;;;;;;9.89;100.00;100174.53;4994414;28;20446;-77
2022/12/23 02:59:16;;;;;;;232.13;42.63;;;;;;;9.92;100.00;100183.34;4991000;28;20031;-77
2022/12/23 03:01:42;;;;;;;227.30;43.50;;;;;;;9.93;100.00;100184.19;4992863;28;20113;-77
2022/12/23 03:04:08;;;;;;;266.38;46.92;;;;;;;9.93;100.00;100186.91;4992098;28;20053;-77
2022/12/23 03:06:42;;;;;;;269.58;45.08;;;;;;;9.92;100.00;100188.81;4978134;28;20047;-76
2022/12/23 03:09:07;;;;;;;233.43;44.85;;;;;;;9.92;100.00;100185.22;4987992;28;20533;-76
2022/12/23 03:12:01;;;;;;;252.30;44.85;;;;;;;9.90;100.00;100184.44;4975121;28;20038;-77
2022/12/23 03:14:42;;;;;;;272.00;45.75;;;;;;;9.98;100.00;100176.44;4994340;28;20042;-77
2022/12/23 03:17:33;;;;;;;254.40;46.42;;;;;;;9.97;100.00;100182.94;4990182;28;20146;-77
2022/12/23 03:20:11;;;;;;;270.60;46.88;;;;;;;9.95;100.00;100173.97;4991176;28;20038;-77
2022/12/23 03:22:41;;;;;;;259.80;45.75;;;;;;;10.00;100.00;100192.72;4978189;28;20502;-77
2022/12/23 03:25:22;;;;;;;279.67;45.80;;;;;;;9.98;100.00;100184.66;4987566;28;20058;-77
2022/12/23 03:28:12;;;;;;;248.27;46.20;;;;;;;9.98;100.00;100183.78;4984026;28;20038;-78
2022/12/23 03:30:41;;;;;;;265.30;47.97;;;;;;;10.02;100.00;100183.41;4990368;28;20034;-77
2022/12/23 03:33:39;;;;;;;301.67;47.28;;;;;;;9.99;100.00;100183.66;4993763;28;20116;-78
2022/12/23 03:36:34;;;;;;;274.67;49.13;;;;;;;9.93;100.00;100185.03;4982377;28;20065;-77
2022/12/23 03:39:03;;;;;;;267.70;46.40;;;;;;;9.97;100.00;100179.31;4971116;28;20077;-77
2022/12/23 03:41:41;;;;;;;258.08;45.38;;;;;;;9.95;100.00;100176.72;4987876;28;20130;-78
2022/12/23 03:44:17;;;;;;;307.98;47.15;;;;;;;9.99;100.00;100169.97;4982467;28;20061;-77
2022/12/23 03:46:51;;;;;;;273.40;45.95;;;;;;;9.94;100.00;100169.53;4986555;28;20096;-78
2022/12/23 03:49:26;;;;;;;313.27;48.22;;;;;;;10.02;100.00;100182.50;4989675;28;20390;-77
2022/12/23 03:51:55;;;;;;;306.15;54.05;;;;;;;9.92;100.00;100185.22;4995314;28;20038;-78
2022/12/23 03:54:30;;;;;;;262.05;44.40;;;;;;;9.96;100.00;100181.19;4996304;28;20429;-77
2022/12/23 03:57:01;;;;;;;310.33;50.05;;;;;;;9.94;100.00;100170.38;4989116;28;20037;-77
2022/12/23 03:59:31;;;;;;;277.90;48.65;;;;;;;9.94;100.00;100167.66;4993570;28;20026;-78
2022/12/23 04:02:17;;;;;;;302.70;51.22;;;;;;;10.02;100.00;100182.50;4997324;28;20090;-77
2022/12/23 04:05:12;;;;;;;314.48;50.97;;;;;;;9.97;100.00;100166.53;4998421;28;20113;-78
2022/12/23 04:08:02;;;;;;;266.02;46.97;;;;;;;9.99;100.00;100186.41;4995707;28;20773;-78
2022/12/23 04:10:29;;;;;;;295.98;48.75;;;;;;;9.99;100.00;100178.19;4973194;28;20026;-77
2022/12/23 04:12:55;;;;;;;293.67;48.92;;;;;;;9.97;100.00;100185.66;4996862;28;20493;-78
2022/12/23 04:15:22;;;;;;;296.38;44.53;;;;;;;9.93;100.00;100186.91;4991150;28;20173;-78
2022/12/23 04:17:49;;;;;;;299.13;46.65;;;;;;;9.88;100.00;100186.47;4980440;28;20092;-78
2022/12/23 04:20:15;;;;;;;308.25;48.33;;;;;;;9.91;100.00;100195.25;4995688;28;20038;-78
2022/12/23 04:22:42;;;;;;;296.98;46.28;;;;;;;9.90;100.00;100192.66;4996348;28;20516;-78
2022/12/23 04:25:09;;;;;;;300.70;48.72;;;;;;;9.91;100.00;100194.41;4984505;28;20035;-79
2022/12/23 04:27:34;;;;;;;306.58;49.03;;;;;;;9.90;100.00;100200.84;4979399;28;20050;-78
2022/12/23 04:30:00;;;;;;;349.80;48.40;;;;;;;9.91;100.00;100200.72;4985595;28;20026;-80
2022/12/23 04:32:25;;;;;;;328.58;49.03;;;;;;;9.86;100.00;100200.25;4994964;28;20038;-79
2022/12/23 04:34:51;;;;;;;303.60;49.47;;;;;;;9.91;100.00;100198.00;4996421;28;20445;-78
2022/12/23 04:37:16;;;;;;;299.52;46.63;;;;;;;9.83;100.00;100211.47;4959158;28;20079;-78
2022/12/23 04:39:42;;;;;;;323.10;48.72;;;;;;;9.83;100.00;100214.19;4980565;28;20034;-78
2022/12/23 04:42:07;;;;;;;355.42;49.83;;;;;;;9.88;100.00;100216.53;4977099;28;20050;-78
2022/12/23 04:44:32;;;;;;;314.95;51.83;;;;;;;9.84;100.00;100209.59;4966384;28;20042;-78
2022/12/23 04:46:58;;;;;;;319.02;49.78;;;;;;;9.91;100.00;100211.66;4981668;28;20034;-78
2022/12/23 04:49:23;;;;;;;329.77;46.75;;;;;;;9.90;100.00;100222.72;4980997;28;20092;-78
2022/12/23 04:51:49;;;;;;;313.70;48.40;;;;;;;9.87;100.00;100212.94;4998251;28;20097;-78
2022/12/23 04:54:14;;;;;;;332.55;49.45;;;;;;;9.86;100.00;100210.34;4981339;28;20027;-78
2022/12/23 04:56:39;;;;;;;347.23;47.25;;;;;;;9.90;100.00;100220.88;4998047;28;20126;-78
2022/12/23 04:59:05;;;;;;;370.13;47.85;;;;;;;9.90;100.00;100207.22;4968275;28;20039;-78
2022/12/23 05:01:30;;;;;;;359.25;52.00;;;;;;;9.88;100.00;100208.34;4979551;28;20046;-78
2022/12/23 05:03:56;;;;;;;349.92;51.45;;;;;;;9.84;100.00;100206.84;4983020;28;20057;-78
2022/12/23 05:06:21;;;;;;;366.45;49.33;;;;;;;9.84;100.00;100210.47;4980854;28;20073;-78
2022/12/23 05:08:47;;;;;;;351.05;51.85;;;;;;;9.84;100.00;100202.28;4998927;28;20104;-78
2022/12/23 05:11:12;;;;;;;319.20;45.05;;;;;;;9.84;100.00;100201.38;4965714;28;20130;-78
2022/12/23 05:13:38;;;;;;;352.02;48.70;;;;;;;9.89;100.00;100193.69;4985384;28;20471;-78
2022/12/23 05:16:03;;;;;;;378.58;48.22;;;;;;;9.85;100.00;100200.41;4977358;28;20063;-78
2022/12/23 05:18:29;;;;;;;332.73;44.95;;;;;;;9.84;100.00;100196.81;4999060;28;20026;-79
2022/12/23 05:20:54;;;;;;;340.40;45.38;;;;;;;9.77;100.00;100192.00;4964994;28;20145;-78
2022/12/23 05:23:22;;;;;;;373.17;45.03;;;;;;;9.73;100.00;100205.91;4993983;28;20089;-77
2022/12/23 05:25:52;;;;;;;305.27;44.33;;;;;;;9.74;100.00;100213.13;4968169;28;20512;-77
2022/12/23 05:28:19;;;;;;;294.92;41.55;;;;;;;9.72;100.00;100222.47;4991439;28;20120;-78
2022/12/23 05:30:44;;;;;;;311.20;41.63;;;;;;;9.72;100.00;100228.81;4995391;28;20034;-78
2022/12/23 05:33:10;;;;;;;239.48;37.85;;;;;;;9.73;100.00;100233.25;4962340;28;20042;-78
2022/12/23 05:35:35;;;;;;;290.77;36.60;;;;;;;9.77;100.00;100238.47;4996818;28;20401;-78
2022/12/23 05:38:03;;;;;;;240.32;36.22;;;;;;;9.69;100.00;100242.75;4979762;28;20073;-78
2022/12/23 05:40:29;;;;;;;239.75;32.25;;;;;;;9.75;100.00;100255.00;4997070;28;20057;-78
2022/12/23 05:42:55;;;;;;;243.45;33.65;;;;;;;9.70;100.00;100255.38;4993538;28;20497;-78
2022/12/23 05:45:20;;;;;;;267.88;36.15;;;;;;;9.65;100.00;100245.84;4998190;28;20125;-78
2022/12/23 05:47:46;;;;;;;251.73;36.92;;;;;;;9.63;100.00;100248.72;4979849;28;20454;-78
2022/12/23 05:50:11;;;;;;;206.88;35.28;;;;;;;9.61;100.00;100250.72;4995758;28;20049;-78
2022/12/23 05:52:37;;;;;;;225.57;36.85;;;;;;;9.63;100.00;100256.06;4996930;28;20453;-78
2022/12/23 05:55:03;;;;;;;256.48;36.50;;;;;;;9.62;100.00;100246.97;4979007;28;20068;-78
2022/12/23 05:57:30;;;;;;;281.30;40.45;;;;;;;9.61;100.00;100263.50;4978555;28;20526;-78
2022/12/23 05:59:56;;;;;;;274.98;40.33;;;;;;;9.64;100.00;100258.66;4991690;28;20045;-77
2022/12/23 06:02:21;;;;;;;279.23;38.42;;;;;;;9.61;100.00;100245.25;4991621;28;20408;-78
2022/12/23 06:04:47;;;;;;;306.48;43.13;;;;;;;9.58;100.00;100253.72;4993025;28;20034;-78
2022/12/23 06:07:12;;;;;;;312.20;40.22;;;;;;;9.53;100.00;100240.44;4977346;28;20074;-77
2022/12/23 06:09:38;;;;;;;277.05;42.42;;;;;;;9.47;100.00;100238.22;4980775;28;20046;-77
2022/12/23 06:12:03;;;;;;;289.58;40.83;;;;;;;9.55;100.00;100234.84;4986814;28;20042;-77
2022/12/23 06:14:29;;;;;;;333.75;44.17;;;;;;;9.56;100.00;100236.59;4987677;28;20038;-76
2022/12/23 06:16:54;;;;;;;302.40;42.03;;;;;;;9.53;100.00;100225.91;4974171;28;20053;-77
2022/12/23 06:19:20;;;;;;;323.25;42.33;;;;;;;9.50;100.00;100232.50;4976523;28;20037;-77
2022/12/23 06:21:45;;;;;;;340.13;44.40;;;;;;;9.46;100.00;100236.50;4987240;28;20034;-78
2022/12/23 06:24:11;;;;;;;309.02;43.35;;;;;;;9.53;100.00;100232.25;4971320;28;20034;-77
2022/12/23 06:26:36;;;;;;;334.52;44.97;;;;;;;9.46;100.00;100227.41;4977899;28;20505;-78
2022/12/23 06:29:02;;;;;;;311.27;43.30;;;;;;;9.43;100.00;100220.34;4976343;28;20461;-78
2022/12/23 06:31:28;;;;;;;320.65;43.13;;;;;;;9.42;100.00;100218.63;4976090;28;20069;-78
2022/12/23 06:33:53;;;;;;;297.90;41.60;;;;;;;9.46;100.00;100200.09;4968538;28;20117;-78
2022/12/23 06:36:19;;;;;;;315.38;43.30;;;;;;;9.45;100.00;100212.91;4972933;28;20206;-78
2022/12/23 06:38:44;;;;;;;273.65;39.85;;;;;;;9.45;100.00;100217.50;4990198;28;20461;-79
2022/12/23 06:41:10;;;;;;;335.48;42.83;;;;;;;9.42;100.00;100217.75;4993231;28;20077;-78
2022/12/23 06:43:36;;;;;;;306.10;42.42;;;;;;;9.45;100.00;100221.09;4991891;28;20046;-79
2022/12/23 06:46:01;;;;;;;375.75;44.80;;;;;;;9.44;100.00;100227.53;4961304;28;20054;-78
2022/12/23 06:48:29;;;;;;;310.70;42.67;;;;;;;9.46;100.00;100230.16;4989723;28;20481;-77
2022/12/23 06:50:55;;;;;;;331.83;42.97;;;;;;;9.43;100.00;100225.81;4960567;28;20037;-77
2022/12/23 06:53:20;;;;;;;302.73;38.80;;;;;;;9.43;100.00;100241.31;4992227;28;20034;-77
2022/12/23 06:55:46;;;;;;;326.38;44.35;;;;;;;9.51;100.00;100247.91;4992179;28;20034;-78
2022/12/23 06:58:11;;;;;;;327.08;41.78;;;;;;;9.51;100.00;100255.22;4972053;28;20406;-78
2022/12/23 07:00:36;;;;;;;323.45;44.28;;;;;;;9.45;100.00;100261.22;4991217;28;20104;-77
2022/12/23 07:03:02;;;;;;;255.23;39.08;;;;;;;9.43;100.00;100252.25;4988641;28;20031;-78
2022/12/23 07:05:30;;;;;;;299.58;42.10;;;;;;;9.48;100.00;100266.44;4989055;28;20037;-78
2022/12/23 07:07:56;;;;;;;285.95;41.35;;;;;;;9.41;100.00;100281.59;4994422;28;20049;-78
2022/12/23 07:10:22;;;;;;;285.33;40.53;;;;;;;9.41;100.00;100293.38;4992428;28;20084;-79
2022/12/23 07:12:47;;;;;;;330.08;45.45;;;;;;;9.31;100.00;100293.31;4976712;28;20034;-80
2022/12/23 07:15:13;;;;;;;284.25;43.22;;;;;;;9.33;100.00;100299.50;4988284;28;20045;-79
2022/12/23 07:17:38;;;;;;;349.15;42.25;;;;;;;9.44;100.00;100314.97;4991983;28;20045;-79
2022/12/23 07:20:04;;;;;;;324.33;44.22;;;;;;;9.45;100.00;100319.47;4975657;28;20038;-78
2022/12/23 07:22:30;;;;;;;295.77;43.67;;;;;;;9.44;100.00;100305.94;4988718;28;20092;-79
2022/12/23 07:24:55;;;;;;;301.77;42.33;;;;;;;9.47;100.00;100301.06;4991067;28;21232;-77
2022/12/23 07:27:21;;;;;;;303.52;44.25;;;;;;;9.51;100.00;100290.75;4972190;28;20032;-78
2022/12/23 07:29:46;;;;;;;310.98;42.95;;;;;;;9.49;100.00;100306.41;4975750;28;20044;-77
2022/12/23 07:32:12;;;;;;;341.65;45.35;;;;;;;9.45;100.00;100294.00;4987687;28;20049;-78
2022/12/23 07:34:37;;;;;;;348.55;45.08;;;;;;;9.45;100.00;100292.13;4980861;28;20487;-78
2022/12/23 07:37:02;;;;;;;340.17;43.50;;;;;;;9.42;100.00;100286.06;4965331;28;20494;-79
2022/12/23 07:39:28;;;;;;;310.80;44.53;;;;;;;9.42;100.00;100291.53;4984832;28;20050;-78
2022/12/23 07:41:53;;;;;;;320.08;41.55;;;;;;;9.46;100.00;100293.88;4972561;28;20043;-77
2022/12/23 07:44:19;;;;;;;322.98;46.25;;;;;;;9.44;100.00;100284.91;4973669;28;20038;-79
2022/12/23 07:46:44;;;;;;;323.00;43.60;;;;;;;9.42;100.00;100291.53;4978086;28;20067;-80
2022/12/23 07:49:10;;;;;;;316.98;45.97;;;;;;;9.43;100.00;100274.13;4970174;28;20038;-78
2022/12/23 07:51:35;;;;;;;302.40;41.03;;;;;;;9.43;100.00;100272.28;4961761;28;20037;-77
2022/12/23 07:54:01;;;;;;;361.98;43.58;;;;;;;9.41;100.00;100285.19;4973725;28;20121;-77
2022/12/23 07:56:26;;;;;;;326.92;45.67;;;;;;;9.52;100.00;100276.94;4989180;28;20062;-77
2022/12/23 07:58:52;;;;;;;352.92;46.25;;;;;;;9.36;100.00;100282.84;4989701;28;20034;-77
2022/12/23 08:01:19;;;;;;;331.92;46.30;;;;;;;9.41;100.00;100281.59;5006552;28;20037;-78
2022/12/23 08:03:44;;;;;;;368.60;44.60;;;;;;;9.38;100.00;100280.84;4984878;28;20074;-78
2022/12/23 08:06:12;;;;;;;333.80;41.58;;;;;;;9.41;100.00;100293.38;4992306;28;20493;-77
2022/12/23 08:08:39;;;;;;;328.00;43.35;;;;;;;9.50;100.00;100292.63;4972086;28;20493;-78
2022/12/23 08:11:07;;;;;;;364.95;43.05;;;;;;;9.46;100.00;100279.31;4987217;28;20114;-79
2022/12/23 08:13:36;;;;;;;366.65;44.22;;;;;;;9.31;100.00;100262.34;4991485;28;20137;-80
2022/12/23 08:16:03;;;;;;;353.58;44.53;;;;;;;9.47;100.00;100276.47;4993873;28;20031;-79
2022/12/23 08:18:30;;;;;;;342.60;43.20;;;;;;;9.46;100.00;100277.50;4993560;28;20117;-79
2022/12/23 08:20:58;;;;;;;324.65;43.00;;;;;;;9.45;100.00;100272.16;4986923;28;20030;-78
2022/12/23 08:23:24;;;;;;;330.42;42.38;;;;;;;9.35;100.00;100277.50;4989364;28;20508;-79
2022/12/23 08:26:17;;;;;;;327.05;43.58;;;;;;;9.33;100.00;100255.78;4985579;28;20195;-79
2022/12/23 08:28:44;;;;;;;311.02;40.63;;;;;;;9.44;100.00;100252.13;4989921;28;20132;-78
2022/12/23 08:31:12;;;;;;;315.30;41.72;;;;;;;9.38;100.00;100249.94;4983914;28;20043;-79
2022/12/23 08:33:40;;;;;;;326.05;44.47;;;;;;;9.36;100.00;100262.84;4982063;28;20030;-78
2022/12/23 08:36:07;;;;;;;309.20;42.95;;;;;;;9.39;100.00;100276.25;4989984;28;20089;-78
2022/12/23 08:38:34;;;;;;;286.98;39.55;;;;;;;9.40;100.00;100274.41;4979405;28;20485;-79
2022/12/23 08:41:00;;;;;;;276.30;38.33;;;;;;;9.33;100.00;100263.09;4996656;28;20469;-78
2022/12/23 08:43:25;;;;;;;287.50;39.55;;;;;;;9.35;100.00;100267.44;4996976;28;20082;-78
2022/12/23 08:45:51;;;;;;;264.50;38.72;;;;;;;9.31;100.00;100263.25;4997587;28;20387;-78
2022/12/23 08:48:17;;;;;;;276.65;37.30;;;;;;;9.31;100.00;100281.47;4997139;28;20038;-78
2022/12/23 08:50:44;;;;;;;272.88;38.47;;;;;;;9.31;100.00;100278.75;4997658;28;20038;-78
2022/12/23 08:53:11;;;;;;;250.63;38.58;;;;;;;9.28;100.00;100265.34;4979229;28;20405;-78
2022/12/23 08:55:45;;;;;;;256.73;35.72;;;;;;;9.28;100.00;100252.56;4992491;28;20042;-78
2022/12/23 08:58:12;;;;;;;285.13;35.85;;;;;;;9.27;100.00;100250.81;4997241;28;20034;-78
2022/12/23 09:00:38;;;;;;;268.38;34.78;;;;;;;9.31;100.00;100246.84;4997297;28;20034;-79
2022/12/23 09:03:03;;;;;;;223.73;34.58;;;;;;;9.33;100.00;100242.13;4995558;28;20508;-79
2022/12/23 09:05:30;;;;;;;242.10;36.03;;;;;;;9.25;100.00;100230.97;4972332;28;20085;-79
2022/12/23 09:07:55;;;;;;;246.38;36.45;;;;;;;9.32;100.00;100243.09;5012162;28;20039;-79
2022/12/23 09:10:22;;;;;;;233.57;34.72;;;;;;;9.31;100.00;100246.84;4959857;28;20077;-79
2022/12/23 09:12:48;;;;;;;227.45;35.65;;;;;;;9.32;100.00;100245.84;4992045;28;20046;-79
2022/12/23 09:15:14;;;;;;;240.43;33.47;;;;;;;9.29;100.00;100237.03;4991819;28;20033;-79
2022/12/23 09:17:39;;;;;;;219.98;30.10;;;;;;;9.32;100.00;100234.91;4992461;28;20034;-80
2022/12/23 09:20:05;;;;;;;186.95;30.65;;;;;;;9.29;100.00;100229.69;4978246;28;20409;-80
2022/12/23 09:22:32;;;;;;;205.73;31.73;;;;;;;9.37;100.00;100221.72;4977403;28;20038;-80
2022/12/23 09:24:58;;;;;;;164.18;28.77;;;;;;;9.33;100.00;100205.72;4996646;28;20066;-80
2022/12/23 09:27:23;;;;;;;169.18;30.48;;;;;;;9.35;100.00;100217.41;4991547;28;20129;-79
2022/12/23 09:29:48;;;;;;;168.90;29.58;;;;;;;9.46;100.00;100206.44;4992256;28;20367;-80
2022/12/23 09:32:14;;;;;;;171.50;27.45;;;;;;;9.41;100.00;100202.34;4961048;28;20140;-80
2022/12/23 09:34:39;;;;;;;163.02;27.05;;;;;;;9.32;100.00;100196.66;4977847;28;20037;-80
2022/12/23 09:37:05;;;;;;;154.93;27.55;;;;;;;9.29;100.00;100180.53;4994945;28;20441;-80
2022/12/23 09:39:30;;;;;;;162.35;28.13;;;;;;;9.38;100.00;100200.75;4977386;28;20105;-81
2022/12/23 09:42:11;;;;;;;188.45;27.58;;;;;;;9.42;100.00;100195.91;4996076;28;20046;-79
2022/12/23 09:44:47;;;;;;;176.32;30.65;;;;;;;9.31;100.00;100189.50;4966146;28;20113;-78
2022/12/23 09:47:21;;;;;;;178.63;28.63;;;;;;;9.31;100.00;100184.03;4995572;28;20048;-80
2022/12/23 09:50:01;;;;;;;169.32;28.52;;;;;;;9.27;100.00;100177.06;4996672;28;20099;-80
2022/12/23 09:52:41;;;;;;;172.75;29.25;;;;;;;9.19;100.00;100176.84;4976797;28;20058;-80
2022/12/23 09:55:10;;;;;;;185.95;28.92;;;;;;;9.23;100.00;100174.72;4984784;28;20382;-79
2022/12/23 09:57:59;;;;;;;181.60;30.52;;;;;;;9.21;100.00;100163.94;4977479;28;20038;-80
2022/12/23 10:00:31;;;;;;;185.43;31.23;;;;;;;9.15;100.00;100154.41;5007901;28;20513;-80
2022/12/23 10:03:15;;;;;;;168.20;30.95;;;;;;;9.18;100.00;100151.41;4989613;28;20034;-80
2022/12/23 10:05:46;;;;;;;172.88;29.23;;;;;;;9.22;100.00;100149.28;4993786;28;20120;-79
2022/12/23 10:08:32;;;;;;;173.32;29.15;;;;;;;9.21;100.00;100153.00;4994959;28;20120;-79
2022/12/23 10:11:00;;;;;;;183.55;28.77;;;;;;;9.23;100.00;100166.53;4976798;28;20037;-80
2022/12/23 10:13:36;;;;;;;161.57;27.88;;;;;;;9.19;100.00;100157.72;4990001;28;20030;-78
2022/12/23 10:16:08;;;;;;;180.20;28.98;;;;;;;9.32;100.00;100165.75;4970074;28;20033;-79
2022/12/23 10:18:55;;;;;;;144.75;27.88;;;;;;;9.32;100.00;100173.97;4995600;28;20121;-79
2022/12/23 10:21:46;;;;;;;152.15;28.98;;;;;;;9.29;100.00;100177.81;4994285;28;20121;-79
2022/12/23 10:24:16;;;;;;;162.55;28.65;;;;;;;9.24;100.00;100154.63;4991966;28;20042;-79
2022/12/23 10:26:51;;;;;;;161.43;27.95;;;;;;;9.22;100.00;100146.56;4992338;28;20033;-79
2022/12/23 10:29:20;;;;;;;145.90;27.85;;;;;;;9.20;100.00;100143.09;4974059;28;20034;-79
2022/12/23 10:32:04;;;;;;;141.05;28.00;;;;;;;9.21;100.00;100142.06;4990812;28;20030;-79
2022/12/23 10:34:55;;;;;;;159.70;27.63;;;;;;;9.30;100.00;100116.72;4991935;28;20482;-78
2022/12/23 10:38:09;;;;;;;143.20;24.85;;;;;;;9.37;100.00;100128.84;4986017;28;20041;-79
2022/12/23 10:40:39;;;;;;;125.47;23.85;;;;;;;9.30;100.00;100127.66;4983965;28;20050;-79
2022/12/23 10:43:21;;;;;;;160.02;26.10;;;;;;;9.35;100.00;100125.38;5001462;28;20038;-79
2022/12/23 10:45:55;;;;;;;126.55;23.23;;;;;;;9.46;100.00;100116.28;4991332;28;20145;-79
2022/12/23 10:48:30;;;;;;;127.47;26.15;;;;;;;9.46;100.00;100108.06;4998130;28;20398;-79
2022/12/23 10:51:00;;;;;;;137.35;25.13;;;;;;;9.52;100.00;100090.25;5002647;28;20037;-79
2022/12/23 10:53:33;;;;;;;130.43;23.95;;;;;;;9.46;100.00;100088.06;4989064;28;20030;-80
2022/12/23 10:56:00;;;;;;;117.68;25.27;;;;;;;9.47;100.00;100082.47;4982833;28;20026;-80
2022/12/23 10:58:25;;;;;;;114.13;22.70;;;;;;;9.51;100.00;100086.69;4967678;28;20026;-79
2022/12/23 11:00:57;;;;;;;130.40;25.52;;;;;;;9.54;100.00;100094.59;4993078;28;20069;-79
2022/12/23 11:03:32;;;;;;;103.53;22.30;;;;;;;9.52;100.00;100074.72;5008637;28;20026;-79
2022/12/23 11:05:58;;;;;;;109.70;22.35;;;;;;;9.51;100.00;100077.59;4983030;28;20042;-79
2022/12/23 11:08:26;;;;;;;127.38;23.70;;;;;;;9.54;100.00;100069.13;4973533;28;20046;-79
2022/12/23 11:10:53;;;;;;;100.32;20.67;;;;;;;9.42;100.00;100060.13;4975293;28;20029;-79
2022/12/23 11:13:33;;;;;;;105.88;22.55;;;;;;;9.43;100.00;100052.81;4973465;28;20050;-79
2022/12/23 11:16:26;;;;;;;104.75;22.58;;;;;;;9.41;100.00;100044.75;4967320;28;20398;-80
2022/12/23 11:18:55;;;;;;;96.60;21.00;;;;;;;9.37;100.00;100035.94;4990278;28;20058;-79
2022/12/23 11:21:23;;;;;;;103.43;25.08;;;;;;;9.46;100.00;100017.91;4978182;28;20117;-79
2022/12/23 11:24:06;;;;;;;82.50;20.38;;;;;;;9.40;100.00;100003.91;4973663;28;20045;-79
2022/12/23 11:26:32;;;;;;;130.55;24.58;;;;;;;9.48;100.00;100006.84;4983226;28;20030;-80
2022/12/23 11:29:05;;;;;;;99.80;19.65;;;;;;;9.46;100.00;100003.34;4991311;28;20046;-80
2022/12/23 11:31:34;;;;;;;98.25;21.77;;;;;;;9.53;100.00;99989.03;5010385;28;20023;-80
2022/12/23 11:34:06;;;;;;;115.63;21.83;;;;;;;9.50;100.00;99996.63;4994095;28;20035;-79
2022/12/23 11:36:33;;;;;;;102.82;19.52;;;;;;;9.41;100.00;99992.81;4994313;28;20070;-79
2022/12/23 11:39:02;;;;;;;73.85;19.17;;;;;;;9.47;100.00;99997.75;4993979;28;20081;-79
2022/12/23 11:41:48;;;;;;;100.90;19.33;;;;;;;9.48;100.00;99995.91;4978101;28;20041;-79